Time;durP1;ratioP1;P1;durP2;ratioP2;P2;SDS_P1;SDS_P2;PMS_P1;PMS_P2;Temp;Humidity;BMP_temperature;BMP_pressure;BME280_temperature;BME280_humidity;BME280_pressure;Samples;Min_cycle;Max_cycle;Signal;HPM_P1;HPM_P2
2022/03/18 00:02:17;;;;;;;8.23;3.55;;;;;;;-1.79;44.23;102875.64;1733022;81;21046;-60
2022/03/18 00:04:50;;;;;;;8.73;3.90;;;;;;;-1.79;44.27;102880.55;1733054;83;21513;-61
2022/03/18 00:07:22;;;;;;;8.80;3.80;;;;;;;-1.81;44.28;102879.73;1733004;81;21102;-62
2022/03/18 00:09:52;;;;;;;9.13;3.60;;;;;;;-1.81;44.26;102875.70;1733172;80;21047;-62
2022/03/18 00:12:21;;;;;;;9.73;3.95;;;;;;;-1.81;44.24;102877.05;1733117;82;21046;-62
2022/03/18 00:14:50;;;;;;;8.23;3.75;;;;;;;-1.83;44.34;102885.63;1733173;83;21059;-61
2022/03/18 00:17:19;;;;;;;7.15;3.50;;;;;;;-1.88;44.42;102879.55;1733421;83;20996;-60
2022/03/18 00:19:48;;;;;;;9.00;4.05;;;;;;;-1.94;44.52;102878.44;1733140;83;21043;-60
2022/03/18 00:22:19;;;;;;;9.70;4.12;;;;;;;-1.94;44.53;102883.81;1733490;81;21517;-61
2022/03/18 00:24:49;;;;;;;9.20;4.03;;;;;;;-1.99;44.56;102885.29;1733154;83;21166;-61
2022/03/18 00:27:17;;;;;;;7.45;3.70;;;;;;;-1.99;44.68;102881.73;1733512;82;21065;-61
2022/03/18 00:29:47;;;;;;;8.28;3.92;;;;;;;-2.00;44.69;102891.59;1733141;83;21560;-62
2022/03/18 00:32:16;;;;;;;9.93;4.00;;;;;;;-2.01;44.71;102891.66;1742871;82;21077;-62
2022/03/18 00:34:44;;;;;;;8.73;4.42;;;;;;;-2.02;44.73;102885.40;1757218;82;21013;-61
2022/03/18 00:37:15;;;;;;;10.13;4.05;;;;;;;-2.02;44.69;102893.92;1757459;80;21077;-61
2022/03/18 00:39:45;;;;;;;10.60;3.95;;;;;;;-2.04;44.61;102885.92;1757400;82;21014;-61
2022/03/18 00:42:14;;;;;;;8.83;4.20;;;;;;;-2.08;44.66;102887.44;1757199;81;21013;-62
2022/03/18 00:44:44;;;;;;;9.00;3.95;;;;;;;-2.09;44.76;102895.08;1757442;82;21061;-61
2022/03/18 00:52:49;;;;;;;8.53;4.00;;;;;;;-2.06;44.83;102894.97;1757226;81;20986;-61
2022/03/18 00:55:18;;;;;;;9.38;4.25;;;;;;;-2.08;44.83;102894.15;1757419;80;21041;-61
2022/03/18 00:57:46;;;;;;;9.55;4.15;;;;;;;-2.07;44.81;102901.27;1757418;80;21010;-61
2022/03/18 01:00:15;;;;;;;10.85;4.12;;;;;;;-2.04;44.76;102897.13;1757416;82;21033;-61
2022/03/18 01:02:44;;;;;;;9.48;4.20;;;;;;;-2.04;44.86;102896.67;1757210;80;21009;-59
2022/03/18 01:05:15;;;;;;;7.67;3.75;;;;;;;-2.04;44.77;102903.85;1757190;80;21042;-60
2022/03/18 01:07:43;;;;;;;10.28;3.60;;;;;;;-2.06;44.91;102903.03;1757424;82;21022;-61
2022/03/18 01:10:15;;;;;;;8.23;4.00;;;;;;;-2.08;44.87;102911.61;1757696;81;21458;-60
2022/03/18 01:12:43;;;;;;;7.40;4.08;;;;;;;-2.11;44.91;102905.00;1759512;80;21053;-60
2022/03/18 01:15:12;;;;;;;8.78;4.03;;;;;;;-2.16;45.10;102911.00;1759449;82;21038;-61
2022/03/18 01:17:43;;;;;;;8.48;4.15;;;;;;;-2.17;45.25;102910.59;1758426;80;21007;-61
2022/03/18 01:20:13;;;;;;;10.63;4.37;;;;;;;-2.19;45.36;102913.33;1757412;82;21030;-61
2022/03/18 01:22:42;;;;;;;10.70;4.08;;;;;;;-2.22;45.44;102913.44;1757419;81;21066;-61
2022/03/18 01:25:13;;;;;;;6.50;3.60;;;;;;;-2.21;45.55;102920.56;1757069;80;21555;-61
2022/03/18 01:27:42;;;;;;;7.42;3.65;;;;;;;-2.19;45.69;102917.83;1757073;80;21014;-61
2022/03/18 01:30:13;;;;;;;10.03;4.10;;;;;;;-2.22;45.77;102917.94;1757324;80;21037;-61
2022/03/18 01:32:44;;;;;;;9.63;3.90;;;;;;;-2.24;45.96;102921.55;1757019;82;21074;-62
2022/03/18 01:35:13;;;;;;;6.87;3.52;;;;;;;-2.28;46.13;102923.05;1757420;80;21077;-60
2022/03/18 01:37:42;;;;;;;8.68;3.90;;;;;;;-2.30;46.31;102924.45;1757377;82;21077;-61
2022/03/18 01:40:11;;;;;;;7.00;3.58;;;;;;;-2.36;46.42;102923.32;1757120;81;21022;-61
2022/03/18 01:42:40;;;;;;;7.08;3.52;;;;;;;-2.40;46.65;102928.84;1757137;82;21041;-61
2022/03/18 01:45:09;;;;;;;8.30;3.70;;;;;;;-2.45;46.80;102929.00;1757082;82;21026;-61
2022/03/18 01:47:47;;;;;;;7.95;3.67;;;;;;;-2.46;47.05;102932.63;1757032;82;21073;-61
2022/03/18 01:50:16;;;;;;;10.72;4.00;;;;;;;-2.49;47.04;102923.33;1757252;82;21030;-61
2022/03/18 01:52:45;;;;;;;10.80;3.65;;;;;;;-2.51;46.96;102931.90;1757268;80;21060;-62
2022/03/18 01:55:17;;;;;;;10.25;3.92;;;;;;;-2.54;47.03;102940.05;1757185;82;21018;-61
2022/03/18 01:57:46;;;;;;;9.03;3.52;;;;;;;-2.56;47.01;102931.17;1757174;82;21038;-62
2022/03/18 02:00:15;;;;;;;10.50;4.17;;;;;;;-2.58;47.21;102933.03;1757536;80;21090;-61
2022/03/18 02:02:44;;;;;;;8.68;3.98;;;;;;;-2.61;47.15;102933.10;1757271;80;21458;-60
2022/03/18 02:05:14;;;;;;;8.43;4.22;;;;;;;-2.61;47.19;102934.45;1757192;81;21002;-63
2022/03/18 02:07:45;;;;;;;9.68;4.45;;;;;;;-2.61;47.12;102937.12;1757037;80;21648;-61
2022/03/18 02:10:16;;;;;;;12.80;4.60;;;;;;;-2.62;47.07;102937.59;1694692;83;20999;-61
2022/03/18 02:12:47;;;;;;;10.00;4.00;;;;;;;-2.63;46.98;102933.16;1694903;85;21518;-61
2022/03/18 02:15:19;;;;;;;10.78;3.70;;;;;;;-2.62;46.98;102936.72;1694604;85;21070;-61
2022/03/18 02:17:49;;;;;;;10.93;4.40;;;;;;;-2.61;46.98;102941.16;1694563;85;21477;-61
2022/03/18 02:20:18;;;;;;;10.60;3.92;;;;;;;-2.64;46.99;102945.28;1694836;84;21078;-62
2022/03/18 02:22:48;;;;;;;8.45;3.80;;;;;;;-2.70;47.13;102941.45;1694568;85;21065;-59
2022/03/18 02:25:17;;;;;;;7.58;3.95;;;;;;;-2.71;47.23;102941.05;1694939;85;21067;-60
2022/03/18 02:28:04;;;;;;;8.88;3.87;;;;;;;-2.71;47.21;102944.61;1708158;82;21062;-61
2022/03/18 02:30:36;;;;;;;8.95;3.85;;;;;;;-2.68;47.29;102945.84;1757087;80;21061;-62
2022/03/18 02:33:06;;;;;;;8.85;3.75;;;;;;;-2.71;47.26;102946.41;1757047;80;21525;-62
2022/03/18 02:35:36;;;;;;;7.47;3.37;;;;;;;-2.73;47.32;102947.80;1757157;80;21073;-60
2022/03/18 02:38:06;;;;;;;7.90;3.40;;;;;;;-2.73;47.44;102953.17;1757171;82;21065;-61
2022/03/18 02:40:35;;;;;;;7.95;3.52;;;;;;;-2.75;47.48;102959.05;1757364;80;21014;-61
2022/03/18 02:43:06;;;;;;;7.55;3.10;;;;;;;-2.76;47.52;102951.05;1757090;82;21009;-61
2022/03/18 02:45:36;;;;;;;6.28;3.05;;;;;;;-2.79;47.68;102961.88;1757161;82;20990;-63
2022/03/18 02:48:06;;;;;;;8.75;3.45;;;;;;;-2.81;47.79;102976.69;1756977;82;21434;-61
2022/03/18 02:50:35;;;;;;;5.45;2.98;;;;;;;-2.84;47.89;102970.54;1757254;81;21026;-61
2022/03/18 02:53:05;;;;;;;9.80;3.60;;;;;;;-2.85;47.90;102971.47;1757340;80;21002;-61
2022/03/18 02:55:33;;;;;;;9.00;3.70;;;;;;;-2.89;47.88;102978.27;1757208;81;20994;-60
2022/03/18 02:58:04;;;;;;;7.08;3.33;;;;;;;-2.91;48.01;102976.56;1757571;80;21017;-61
2022/03/18 03:00:33;;;;;;;8.60;3.50;;;;;;;-2.91;48.06;102981.47;1757282;80;21010;-60
2022/03/18 03:03:02;;;;;;;6.65;3.20;;;;;;;-2.91;48.11;102989.52;1757286;82;21018;-61
2022/03/18 03:08:19;;;;;;;7.85;3.55;;;;;;;-2.98;48.21;103013.89;1757169;80;21018;-61
2022/03/18 03:10:48;;;;;;;8.28;3.58;;;;;;;-3.06;48.32;103000.72;1756907;80;21046;-61
2022/03/18 03:13:17;;;;;;;8.80;3.40;;;;;;;-3.08;48.46;103005.25;1757094;80;21018;-61
2022/03/18 03:15:45;;;;;;;8.48;3.52;;;;;;;-3.10;48.58;103004.41;1757198;81;21005;-60
2022/03/18 03:18:14;;;;;;;7.50;3.40;;;;;;;-3.12;48.67;103008.95;1757297;80;21061;-61
2022/03/18 03:20:44;;;;;;;7.55;3.40;;;;;;;-3.10;48.80;102996.37;1757439;81;21054;-60
2022/03/18 03:23:14;;;;;;;6.37;3.20;;;;;;;-3.12;48.78;102999.56;1757169;80;21022;-60
2022/03/18 03:25:43;;;;;;;6.55;3.20;;;;;;;-3.12;48.78;103007.61;1757154;82;21057;-60
2022/03/18 03:28:12;;;;;;;6.25;3.20;;;;;;;-3.14;48.90;103004.55;1757441;80;21042;-61
2022/03/18 03:30:41;;;;;;;8.00;3.55;;;;;;;-3.14;48.90;103004.55;1757232;82;21199;-62
2022/03/18 03:33:11;;;;;;;10.08;3.52;;;;;;;-3.16;48.91;103009.96;1748929;82;21423;-60
2022/03/18 03:35:40;;;;;;;6.78;3.65;;;;;;;-3.17;48.96;103006.86;1733087;81;21494;-62
2022/03/18 03:38:10;;;;;;;7.42;3.37;;;;;;;-3.17;49.00;103009.55;1733196;82;21015;-61
2022/03/18 03:40:41;;;;;;;7.10;3.15;;;;;;;-3.21;49.05;103012.78;1733152;81;21011;-61
2022/03/18 03:43:10;;;;;;;7.62;3.42;;;;;;;-3.25;49.23;103013.80;1733165;81;21015;-61
2022/03/18 03:45:39;;;;;;;6.28;3.40;;;;;;;-3.31;49.32;103010.38;1733311;81;21483;-62
2022/03/18 03:48:10;;;;;;;7.67;3.30;;;;;;;-3.29;49.40;103025.50;1733241;81;21035;-61
2022/03/18 03:50:40;;;;;;;9.10;3.60;;;;;;;-3.30;49.51;103028.22;1733341;82;21451;-61
2022/03/18 03:53:11;;;;;;;8.00;3.70;;;;;;;-3.30;49.51;103028.22;1733239;83;21476;-61
2022/03/18 03:55:40;;;;;;;10.13;3.50;;;;;;;-3.32;49.70;103033.63;1733397;81;21039;-60
2022/03/18 03:58:10;;;;;;;8.10;3.50;;;;;;;-3.32;49.70;103034.09;1652106;86;21047;-60
2022/03/18 04:00:41;;;;;;;7.35;3.60;;;;;;;-3.31;49.90;103040.75;1652306;86;21039;-61
2022/03/18 04:03:10;;;;;;;11.53;3.45;;;;;;;-3.34;49.83;103033.26;1652352;86;21016;-61
2022/03/18 04:05:40;;;;;;;6.55;3.45;;;;;;;-3.32;49.89;103039.45;1652148;86;21080;-60
2022/03/18 04:08:08;;;;;;;6.95;3.47;;;;;;;-3.33;49.99;103043.94;1652439;86;21095;-61
2022/03/18 04:10:42;;;;;;;7.05;3.40;;;;;;;-3.33;49.99;103043.94;1652060;87;21043;-62
2022/03/18 04:13:15;;;;;;;7.75;4.28;;;;;;;-3.34;50.34;103053.36;1652032;87;21099;-61
2022/03/18 04:15:45;;;;;;;8.85;4.10;;;;;;;-3.34;50.34;103053.36;1652040;86;21055;-61
2022/03/18 04:18:14;;;;;;;8.03;3.67;;;;;;;-3.34;50.80;103058.72;1652096;86;21039;-61
2022/03/18 04:20:43;;;;;;;9.30;3.80;;;;;;;-3.36;50.73;103052.06;1652228;86;21047;-61
2022/03/18 04:23:12;;;;;;;7.33;3.92;;;;;;;-3.37;50.80;103058.81;1705419;83;21027;-59
2022/03/18 04:25:41;;;;;;;8.30;4.00;;;;;;;-3.41;50.84;103065.18;1733291;83;21031;-61
2022/03/18 04:28:11;;;;;;;8.25;4.03;;;;;;;-3.43;50.92;103067.02;1733351;81;21102;-61
2022/03/18 04:30:41;;;;;;;7.97;3.80;;;;;;;-3.41;50.89;103062.50;1733240;81;21019;-61
2022/03/18 04:33:10;;;;;;;7.55;3.40;;;;;;;-3.41;50.89;103062.50;1733143;81;21419;-61
2022/03/18 04:35:39;;;;;;;7.15;3.67;;;;;;;-3.44;51.07;103064.80;1733352;82;21094;-62
2022/03/18 04:38:08;;;;;;;8.70;3.95;;;;;;;-3.44;51.07;103064.80;1733387;81;21046;-62
2022/03/18 04:40:39;;;;;;;9.10;3.52;;;;;;;-3.48;51.06;103066.27;1733194;82;21035;-61
2022/03/18 04:43:10;;;;;;;7.05;3.65;;;;;;;-3.51;51.21;103073.47;1733124;83;21011;-62
2022/03/18 04:45:40;;;;;;;8.20;3.30;;;;;;;-3.51;51.18;103076.16;1732908;81;21115;-63
2022/03/18 04:48:09;;;;;;;8.70;3.80;;;;;;;-3.49;51.26;103083.27;1733226;83;21033;-62
2022/03/18 04:50:39;;;;;;;7.08;3.47;;;;;;;-3.49;51.26;103083.27;1733132;82;21442;-60
2022/03/18 04:53:08;;;;;;;8.30;3.40;;;;;;;-3.49;51.14;103086.83;1733236;81;21098;-61
2022/03/18 04:55:39;;;;;;;7.75;4.00;;;;;;;-3.50;51.20;103085.08;1733244;83;21455;-60
2022/03/18 04:58:08;;;;;;;8.35;3.75;;;;;;;-3.49;51.18;103083.27;1733142;81;21062;-61
2022/03/18 05:00:37;;;;;;;8.15;3.80;;;;;;;-3.51;51.12;103089.55;1733185;82;20983;-61
2022/03/18 05:03:10;;;;;;;7.70;3.33;;;;;;;-3.53;51.17;103092.73;1733131;83;21002;-61
2022/03/18 05:05:38;;;;;;;8.60;3.30;;;;;;;-3.49;51.19;103092.66;1733033;81;21031;-61
2022/03/18 05:08:09;;;;;;;8.15;3.22;;;;;;;-3.46;51.19;103097.93;1733139;82;21478;-61
2022/03/18 05:10:39;;;;;;;7.17;3.35;;;;;;;-3.50;51.23;103094.45;1733218;81;21507;-61
2022/03/18 05:13:09;;;;;;;9.80;3.65;;;;;;;-3.46;51.34;103108.19;1733298;83;21046;-61
2022/03/18 05:15:39;;;;;;;10.72;3.45;;;;;;;-3.46;51.34;103108.19;1732919;81;21533;-61
2022/03/18 05:18:10;;;;;;;8.48;3.42;;;;;;;-3.46;51.33;103097.47;1733150;82;20987;-61
2022/03/18 05:20:39;;;;;;;9.35;3.70;;;;;;;-3.46;51.27;103099.27;1712797;83;21055;-62
2022/03/18 05:23:08;;;;;;;8.90;3.60;;;;;;;-3.48;51.31;103094.41;1733137;81;21066;-61
2022/03/18 05:25:40;;;;;;;6.45;2.90;;;;;;;-3.51;51.43;103100.73;1651881;85;21063;-61
2022/03/18 05:28:09;;;;;;;12.15;3.70;;;;;;;-3.49;51.26;103102.03;1652203;87;21066;-60
2022/03/18 05:30:39;;;;;;;5.95;3.30;;;;;;;-3.54;51.54;103101.70;1652118;86;21087;-61
2022/03/18 05:33:08;;;;;;;10.10;3.60;;;;;;;-3.53;51.25;103114.17;1652796;86;21094;-61
2022/03/18 05:35:37;;;;;;;6.55;3.33;;;;;;;-3.53;51.25;103114.17;1659877;86;21054;-61
2022/03/18 05:38:06;;;;;;;9.73;3.40;;;;;;;-3.49;51.29;103109.61;1660063;86;21019;-62
2022/03/18 05:40:35;;;;;;;6.75;3.08;;;;;;;-3.46;51.25;103109.99;1660052;86;21129;-60
2022/03/18 05:43:04;;;;;;;9.93;3.77;;;;;;;-3.44;51.26;103105.47;1659989;86;21086;-61
2022/03/18 05:45:32;;;;;;;6.67;3.00;;;;;;;-3.40;51.09;103117.87;1659765;85;21107;-62
2022/03/18 05:48:06;;;;;;;7.30;3.20;;;;;;;-3.40;51.09;103117.87;1659825;86;21110;-61
2022/03/18 05:50:34;;;;;;;6.45;3.33;;;;;;;-3.34;50.93;103126.62;1715839;82;21022;-61
2022/03/18 05:53:03;;;;;;;6.72;3.05;;;;;;;-3.34;50.93;103126.62;1749843;82;20991;-61
2022/03/18 05:58:21;;;;;;;8.80;3.40;;;;;;;-3.28;50.77;103121.55;1749399;80;21006;-61
2022/03/18 06:00:50;;;;;;;7.80;3.08;;;;;;;-3.27;50.77;103134.92;1749408;80;21458;-61
2022/03/18 06:03:22;;;;;;;9.50;3.40;;;;;;;-3.24;50.67;103133.98;1749435;80;21435;-61
2022/03/18 06:05:52;;;;;;;8.55;2.92;;;;;;;-3.21;50.54;103138.80;1749265;81;21035;-61
2022/03/18 06:13:56;;;;;;;13.95;5.08;;;;;;;-3.15;50.25;103145.80;1749801;82;21006;-60
2022/03/18 06:16:25;;;;;;;8.00;3.00;;;;;;;-3.12;50.18;103144.84;1749773;82;21014;-61
2022/03/18 06:18:54;;;;;;;9.30;3.52;;;;;;;-3.10;50.11;103150.58;1749766;82;20986;-61
2022/03/18 06:21:23;;;;;;;8.95;3.65;;;;;;;-3.10;50.11;103147.89;1749536;82;21054;-62
2022/03/18 06:23:53;;;;;;;7.03;3.12;;;;;;;-3.10;50.10;103154.59;1749619;81;21509;-61
2022/03/18 06:26:22;;;;;;;8.58;3.05;;;;;;;-3.09;50.08;103154.14;1749747;82;21038;-63
2022/03/18 06:28:51;;;;;;;8.15;3.17;;;;;;;-3.10;50.06;103151.91;1749702;80;21022;-61
2022/03/18 06:31:20;;;;;;;6.35;3.27;;;;;;;-3.07;50.02;103161.22;1749868;82;21022;-61
2022/03/18 06:33:49;;;;;;;10.90;3.35;;;;;;;-3.03;49.92;103156.65;1751328;81;21030;-61
2022/03/18 06:36:18;;;;;;;9.53;3.58;;;;;;;-2.93;49.79;103158.15;1757173;82;20990;-61
2022/03/18 06:38:47;;;;;;;7.67;3.37;;;;;;;-2.93;49.79;103158.15;1757489;80;21472;-61
2022/03/18 06:41:18;;;;;;;7.15;2.85;;;;;;;-2.89;49.72;103158.48;1757301;81;20994;-62
2022/03/18 06:43:47;;;;;;;5.60;2.87;;;;;;;-2.88;49.67;103158.44;1757385;82;21021;-60
2022/03/18 06:46:16;;;;;;;6.05;3.22;;;;;;;-2.89;49.73;103155.80;1757140;81;21038;-62
2022/03/18 06:48:45;;;;;;;7.60;3.30;;;;;;;-2.89;49.93;103155.80;1757582;80;21018;-60
2022/03/18 06:51:14;;;;;;;6.20;3.05;;;;;;;-2.87;49.79;103164.22;1757469;80;21029;-61
2022/03/18 06:53:45;;;;;;;8.28;3.65;;;;;;;-2.79;49.87;103155.06;1757163;80;21482;-64
2022/03/18 06:56:15;;;;;;;8.80;3.85;;;;;;;-2.79;49.87;103155.06;1757202;80;21045;-61
2022/03/18 06:58:44;;;;;;;6.92;3.45;;;;;;;-2.71;49.80;103162.44;1757451;82;21018;-62
2022/03/18 07:01:14;;;;;;;7.87;3.45;;;;;;;-2.66;49.86;103161.84;1757477;82;21049;-61
2022/03/18 07:03:43;;;;;;;10.03;3.40;;;;;;;-2.63;49.88;103155.92;1757473;80;21026;-61
2022/03/18 07:06:12;;;;;;;10.45;3.70;;;;;;;-2.58;49.83;103165.20;1757132;80;21078;-62
2022/03/18 07:08:43;;;;;;;10.43;3.60;;;;;;;-2.57;49.96;103164.28;1757482;82;21038;-61
2022/03/18 07:11:13;;;;;;;10.58;3.80;;;;;;;-2.51;49.97;103157.39;1757486;81;21018;-61
2022/03/18 07:13:45;;;;;;;9.30;3.72;;;;;;;-2.46;49.90;103158.13;1757211;80;20987;-61
2022/03/18 07:19:04;;;;;;;10.08;3.77;;;;;;;-2.37;49.81;103166.37;1757211;82;21101;-61
2022/03/18 07:21:36;;;;;;;8.03;3.70;;;;;;;-2.35;49.79;103169.42;1757231;82;21069;-61
2022/03/18 07:24:11;;;;;;;8.20;3.45;;;;;;;-2.31;49.72;103165.72;1757415;80;21045;-62
2022/03/18 07:26:40;;;;;;;8.88;3.67;;;;;;;-2.28;49.66;103162.94;1757391;82;21450;-64
2022/03/18 07:29:08;;;;;;;7.92;3.62;;;;;;;-2.24;49.63;103173.13;1757458;80;21062;-60
2022/03/18 07:31:38;;;;;;;11.03;3.80;;;;;;;-2.19;49.77;103175.20;1757465;80;20986;-62
2022/03/18 07:34:07;;;;;;;11.15;3.70;;;;;;;-2.13;49.68;103167.41;1727476;82;21042;-63
2022/03/18 07:36:38;;;;;;;9.70;3.95;;;;;;;-2.09;49.58;103170.42;1743728;82;21011;-61
2022/03/18 07:39:08;;;;;;;11.83;4.03;;;;;;;-2.05;49.52;103174.77;1743765;82;21053;-63
2022/03/18 07:41:38;;;;;;;6.95;3.20;;;;;;;-2.00;49.45;103181.75;1743487;81;21189;-62
2022/03/18 07:44:10;;;;;;;11.10;3.45;;;;;;;-1.94;49.41;103174.87;1743793;82;21003;-62
2022/03/18 07:46:40;;;;;;;9.40;3.85;;;;;;;-1.85;49.40;103166.98;1745633;82;21074;-62
2022/03/18 07:49:10;;;;;;;10.30;3.50;;;;;;;-1.78;49.17;103173.91;1745790;81;21063;-62
2022/03/18 07:51:40;;;;;;;7.03;3.17;;;;;;;-1.74;49.06;103172.88;1745060;82;21034;-62
2022/03/18 07:54:08;;;;;;;8.15;3.37;;;;;;;-1.69;49.01;103168.69;1743857;81;21050;-62
2022/03/18 07:56:39;;;;;;;8.23;3.70;;;;;;;-1.65;48.93;103172.57;1743428;82;21042;-61
2022/03/18 07:59:08;;;;;;;9.30;3.75;;;;;;;-1.57;48.83;103168.75;1743476;81;21015;-62
2022/03/18 08:01:40;;;;;;;7.55;3.65;;;;;;;-1.38;48.67;103171.22;1743405;81;21525;-62
2022/03/18 08:04:12;;;;;;;9.20;3.37;;;;;;;-1.02;48.28;103167.27;1679457;84;21054;-62
2022/03/18 08:06:43;;;;;;;8.45;3.52;;;;;;;-0.54;47.27;103166.88;1679405;85;21043;-62
2022/03/18 08:09:14;;;;;;;14.05;4.33;;;;;;;-0.10;46.80;103169.19;1679530;85;21024;-61
2022/03/18 08:11:45;;;;;;;8.65;3.83;;;;;;;0.40;46.09;103167.62;1679531;85;21533;-60
2022/03/18 08:14:15;;;;;;;6.67;2.70;;;;;;;0.88;45.07;103165.55;1657311;85;21507;-61
2022/03/18 08:16:45;;;;;;;11.53;3.37;;;;;;;1.38;43.16;103165.59;1657332;85;21043;-61
2022/03/18 08:19:14;;;;;;;10.28;3.75;;;;;;;1.83;42.51;103172.90;1679467;85;21122;-60
2022/03/18 08:21:43;;;;;;;7.55;3.40;;;;;;;2.17;41.71;103169.94;1694852;82;21023;-62
2022/03/18 08:24:15;;;;;;;5.95;3.22;;;;;;;2.40;41.19;103160.68;1743191;82;21054;-61
2022/03/18 08:26:44;;;;;;;20.37;4.80;;;;;;;2.88;40.70;103164.56;1743483;81;21034;-62
2022/03/18 08:29:13;;;;;;;10.58;3.80;;;;;;;3.27;39.38;103161.12;1743312;82;21011;-61
2022/03/18 08:31:43;;;;;;;65.75;7.10;;;;;;;3.59;38.65;103167.97;1743261;81;21007;-62
2022/03/18 08:34:12;;;;;;;9.85;4.12;;;;;;;3.72;38.18;103157.71;1745323;81;21050;-61
2022/03/18 08:36:41;;;;;;;7.87;3.72;;;;;;;3.85;37.99;103162.45;1757243;80;21049;-61
2022/03/18 08:39:10;;;;;;;10.30;3.50;;;;;;;3.87;37.44;103156.45;1757148;82;21053;-62
2022/03/18 08:41:39;;;;;;;6.15;3.62;;;;;;;3.90;37.37;103157.64;1756780;81;20998;-61
2022/03/18 08:44:09;;;;;;;8.60;3.65;;;;;;;3.95;37.05;103155.57;1756682;80;21037;-60
2022/03/18 08:46:40;;;;;;;7.45;3.50;;;;;;;3.97;37.27;103157.23;1757185;80;21037;-62
2022/03/18 08:49:09;;;;;;;7.58;3.67;;;;;;;4.09;36.70;103161.95;1730501;82;20994;-62
2022/03/18 08:51:38;;;;;;;10.88;3.60;;;;;;;4.12;36.81;103152.28;1756858;82;21080;-61
2022/03/18 08:54:08;;;;;;;7.22;3.60;;;;;;;4.18;36.65;103156.96;1756933;82;21435;-61
2022/03/18 08:56:39;;;;;;;8.15;4.00;;;;;;;4.24;36.33;103155.25;1756969;80;21058;-61
2022/03/18 08:59:08;;;;;;;6.67;3.58;;;;;;;4.12;36.16;103159.06;1757251;81;21511;-61
2022/03/18 09:01:38;;;;;;;8.38;3.58;;;;;;;4.01;36.18;103153.38;1757178;82;21026;-61
2022/03/18 09:04:08;;;;;;;7.00;3.45;;;;;;;3.89;36.13;103155.41;1757175;80;21516;-62
2022/03/18 09:06:36;;;;;;;6.17;3.17;;;;;;;3.66;36.32;103151.76;1757402;80;20990;-62
2022/03/18 09:09:05;;;;;;;5.60;3.15;;;;;;;3.40;36.84;103145.94;1757199;80;20990;-60
2022/03/18 09:11:36;;;;;;;7.00;3.35;;;;;;;3.19;36.87;103143.01;1757070;81;21482;-61
2022/03/18 09:14:06;;;;;;;8.00;3.10;;;;;;;3.00;37.52;103149.02;1757276;80;21049;-62
2022/03/18 09:16:38;;;;;;;12.55;3.20;;;;;;;2.91;37.69;103144.09;1757540;82;21038;-62
2022/03/18 09:19:07;;;;;;;6.22;3.10;;;;;;;2.83;37.90;103138.59;1757304;82;21058;-62
2022/03/18 09:21:38;;;;;;;4.70;2.62;;;;;;;2.78;38.07;103132.55;1729901;80;21073;-61
2022/03/18 09:24:08;;;;;;;5.03;2.72;;;;;;;2.74;38.04;103137.72;1706519;82;20994;-62
2022/03/18 09:26:42;;;;;;;4.90;2.40;;;;;;;2.67;37.67;103136.30;1729606;82;21030;-62
2022/03/18 09:29:14;;;;;;;5.20;2.20;;;;;;;2.55;37.39;103149.08;1757352;82;21018;-61
2022/03/18 09:31:46;;;;;;;4.47;2.83;;;;;;;2.43;36.98;103135.69;1757537;81;21006;-61
2022/03/18 09:34:24;;;;;;;5.97;3.00;;;;;;;2.29;36.98;103136.87;1757264;80;21484;-60
2022/03/18 09:36:55;;;;;;;4.12;2.20;;;;;;;2.16;37.17;103143.37;1730893;82;21030;-61
2022/03/18 09:39:27;;;;;;;5.92;2.50;;;;;;;2.13;36.67;103132.70;1757439;82;21458;-62
2022/03/18 09:41:57;;;;;;;5.42;2.67;;;;;;;2.11;36.83;103130.55;1756970;80;21033;-62
2022/03/18 09:44:36;;;;;;;6.70;2.45;;;;;;;2.12;37.02;103136.36;1757234;80;21018;-61
2022/03/18 09:47:07;;;;;;;6.28;2.83;;;;;;;2.13;36.83;103134.05;1757467;80;21025;-60
2022/03/18 09:49:36;;;;;;;5.65;3.08;;;;;;;2.11;36.67;103130.55;1729786;82;21066;-60
2022/03/18 09:52:12;;;;;;;6.67;3.20;;;;;;;2.08;36.42;103162.28;1757420;82;21029;-61
2022/03/18 09:54:42;;;;;;;5.70;3.20;;;;;;;2.04;36.41;103147.16;1757278;82;21061;-61
2022/03/18 09:57:14;;;;;;;8.05;3.35;;;;;;;1.95;36.50;103140.81;1757242;82;21061;-61
2022/03/18 09:59:45;;;;;;;120.05;68.80;;;;;;;1.89;36.50;103141.51;1756973;82;21413;-62
2022/03/18 10:02:34;;;;;;;12.58;4.00;;;;;;;1.85;36.63;103139.91;1757192;82;21511;-61
2022/03/18 10:05:13;;;;;;;6.37;3.60;;;;;;;1.83;36.84;103139.58;1730775;82;21101;-62
2022/03/18 10:07:58;;;;;;;4.65;2.50;;;;;;;1.78;37.05;103145.69;1757401;82;21506;-61
2022/03/18 10:10:32;;;;;;;10.38;3.02;;;;;;;1.72;36.21;103143.27;1757640;82;21300;-60
2022/03/18 10:13:08;;;;;;;4.97;2.60;;;;;;;1.65;36.62;103144.52;1707536;82;21022;-61
2022/03/18 10:15:41;;;;;;;4.60;2.30;;;;;;;1.64;36.78;103139.59;1757421;80;21061;-62
2022/03/18 10:18:16;;;;;;;5.83;2.70;;;;;;;1.66;37.05;103128.70;1757740;82;21042;-62
2022/03/18 10:20:50;;;;;;;8.13;2.92;;;;;;;1.73;36.84;103135.56;1757419;81;21026;-61
2022/03/18 10:23:22;;;;;;;7.45;2.75;;;;;;;1.75;36.74;103131.84;1757205;82;21193;-62
2022/03/18 10:25:56;;;;;;;6.30;3.08;;;;;;;1.77;36.95;103132.64;1757214;82;21475;-61
2022/03/18 10:28:41;;;;;;;9.88;3.42;;;;;;;1.81;36.32;103131.55;1757208;82;21073;-60
2022/03/18 10:31:22;;;;;;;9.08;3.98;;;;;;;1.81;36.44;103136.95;1757273;82;21058;-62
2022/03/18 10:37:05;;;;;;;24.45;8.90;;;;;;;1.84;36.63;103134.57;1757269;81;21034;-61
2022/03/18 10:39:45;;;;;;;28.95;10.18;;;;;;;1.85;36.66;103126.39;1733635;82;21035;-62
2022/03/18 10:42:22;;;;;;;36.77;13.35;;;;;;;1.86;36.57;103125.91;1757203;80;21499;-61
2022/03/18 10:44:54;;;;;;;34.50;12.63;;;;;;;1.89;36.48;103127.99;1757341;80;21430;-61
2022/03/18 10:47:39;;;;;;;35.45;12.47;;;;;;;1.90;35.79;103124.81;1706371;82;21038;-62
2022/03/18 10:50:24;;;;;;;32.78;11.30;;;;;;;1.88;35.85;103130.77;1757308;80;21528;-61
2022/03/18 10:53:01;;;;;;;22.70;9.43;;;;;;;1.87;35.89;103131.25;1757229;80;21018;-61
2022/03/18 10:55:36;;;;;;;24.95;8.73;;;;;;;1.87;35.85;103131.25;1757554;81;21427;-62
2022/03/18 10:58:15;;;;;;;19.98;8.73;;;;;;;1.88;35.87;103128.94;1757191;82;21049;-62
2022/03/18 11:00:51;;;;;;;21.77;8.98;;;;;;;1.92;35.36;103129.67;1757210;81;21014;-61
2022/03/18 11:03:21;;;;;;;18.75;8.40;;;;;;;1.88;35.48;103129.41;1757279;82;21030;-61
2022/03/18 11:05:54;;;;;;;25.05;8.63;;;;;;;1.89;35.30;103119.00;1757114;80;21017;-61
2022/03/18 11:08:31;;;;;;;22.67;8.75;;;;;;;1.91;35.44;103123.86;1757250;80;21058;-60
2022/03/18 11:14:00;;;;;;;16.87;7.80;;;;;;;1.93;35.11;103119.73;1634519;85;21019;-61
2022/03/18 11:16:31;;;;;;;16.95;6.92;;;;;;;1.94;34.92;103130.95;1694816;85;21098;-61
2022/03/18 11:19:05;;;;;;;13.65;6.35;;;;;;;1.90;34.95;103113.52;1694903;85;21074;-61
2022/03/18 11:21:41;;;;;;;15.45;6.90;;;;;;;1.92;35.29;103108.04;1694797;84;21067;-61
2022/03/18 11:24:15;;;;;;;9.65;4.35;;;;;;;1.99;35.03;103114.92;1694887;84;21038;-60
2022/03/18 11:26:47;;;;;;;11.08;4.28;;;;;;;2.02;34.65;103109.84;1694801;85;21059;-62
2022/03/18 11:29:27;;;;;;;8.83;3.98;;;;;;;2.01;34.50;103100.86;1695107;85;21050;-61
2022/03/18 11:32:20;;;;;;;8.80;4.50;;;;;;;2.00;34.58;103099.11;1726990;82;21140;-61
2022/03/18 11:34:58;;;;;;;11.63;4.40;;;;;;;2.03;34.64;103100.30;1757253;80;21486;-61
2022/03/18 11:37:29;;;;;;;8.73;4.10;;;;;;;2.06;34.46;103104.20;1757397;80;21006;-61
2022/03/18 11:40:27;;;;;;;7.47;3.55;;;;;;;2.09;34.23;103087.83;1757428;80;21154;-61
2022/03/18 11:42:57;;;;;;;10.23;3.77;;;;;;;2.14;33.82;103091.17;1757209;82;21013;-60
2022/03/18 11:45:34;;;;;;;7.05;3.25;;;;;;;2.13;33.86;103102.07;1757273;81;21017;-61
2022/03/18 11:48:37;;;;;;;6.92;3.15;;;;;;;2.16;33.44;103093.80;1757429;82;21045;-59
2022/03/18 11:51:31;;;;;;;8.63;3.15;;;;;;;2.06;33.67;103096.09;1757483;82;21057;-61
2022/03/18 11:54:10;;;;;;;7.08;3.35;;;;;;;2.04;33.95;103098.00;1753326;80;21022;-61
2022/03/18 11:56:50;;;;;;;6.95;3.02;;;;;;;2.04;33.52;103093.95;1757264;81;21281;-60
2022/03/18 11:59:32;;;;;;;4.40;2.30;;;;;;;2.04;33.42;103106.11;1757189;82;21085;-61
2022/03/18 12:02:11;;;;;;;6.08;2.33;;;;;;;2.05;32.70;103107.86;1666740;86;21133;-61
2022/03/18 12:04:47;;;;;;;5.87;2.75;;;;;;;2.10;32.78;103094.98;1667135;86;21058;-61
2022/03/18 12:07:30;;;;;;;7.47;2.70;;;;;;;2.12;33.13;103087.67;1666810;86;21062;-60
2022/03/18 12:10:16;;;;;;;14.10;2.77;;;;;;;2.16;33.13;103089.27;1666884;86;21561;-61
2022/03/18 12:12:48;;;;;;;7.47;3.08;;;;;;;2.19;33.10;103091.82;1666887;86;21097;-60